createdAt,value
2023-11-01T00:00:36.966Z,100224.91
2023-11-01T00:02:38.613Z,100219.84
2023-11-01T00:04:40.179Z,100227.06
2023-11-01T00:06:41.674Z,100223.00
2023-11-01T00:08:43.171Z,100216.63
2023-11-01T00:10:44.786Z,100212.94
2023-11-01T00:12:46.307Z,100203.00
2023-11-01T00:14:47.761Z,100215.44
2023-11-01T00:16:49.337Z,100202.69
2023-11-01T00:18:51.319Z,100208.06
2023-11-01T00:20:52.774Z,100203.38
2023-11-01T00:22:54.385Z,100199.16
2023-11-01T00:24:55.911Z,100203.69
2023-11-01T00:26:57.474Z,100205.69
2023-11-01T00:28:58.974Z,100201.16
2023-11-01T00:31:00.516Z,100190.59
2023-11-01T00:33:02.164Z,100210.25
2023-11-01T00:35:04.195Z,100198.47
2023-11-01T00:37:05.712Z,100200.00
2023-11-01T00:39:08.400Z,100192.75
2023-11-01T00:41:09.922Z,100204.22
2023-11-01T00:43:11.403Z,100200.69
2023-11-01T00:45:12.874Z,100194.44
2023-11-01T00:47:14.404Z,100196.13
2023-11-01T00:49:15.984Z,100190.75
2023-11-01T00:51:17.556Z,100186.56
2023-11-01T00:53:19.327Z,100189.25
2023-11-01T00:55:20.806Z,100190.25
2023-11-01T00:57:22.307Z,100188.41
2023-11-01T00:59:23.833Z,100185.56
2023-11-01T01:01:25.443Z,100187.91
2023-11-01T01:03:27.101Z,100190.28
2023-11-01T01:05:28.730Z,100182.91
2023-11-01T01:07:30.425Z,100180.03
2023-11-01T01:09:32.469Z,100196.00
2023-11-01T01:11:34.134Z,100187.78
2023-11-01T01:15:42.126Z,100192.81
2023-11-01T01:17:43.650Z,100188.59
2023-11-01T01:19:45.273Z,100185.91
2023-11-01T01:21:46.748Z,100192.16
2023-11-01T01:23:48.383Z,100184.72
2023-11-01T01:25:49.921Z,100179.03
2023-11-01T01:27:51.474Z,100169.78
2023-11-01T01:29:52.988Z,100176.88
2023-11-01T01:31:54.531Z,100178.56
2023-11-01T01:33:56.068Z,100183.94
2023-11-01T01:35:58.573Z,100172.47
2023-11-01T01:38:00.056Z,100173.66
2023-11-01T01:40:01.652Z,100167.59
2023-11-01T01:42:03.176Z,100171.28
2023-11-01T01:50:26.131Z,100159.72
2023-11-01T01:52:27.894Z,100158.69
2023-11-01T01:54:29.956Z,100152.16
2023-11-01T02:02:53.781Z,100140.88
2023-11-01T02:04:55.444Z,100129.25
2023-11-01T02:06:57.470Z,100136.50
2023-11-01T02:08:59.022Z,100131.78
2023-11-01T02:13:13.707Z,100123.41
2023-11-01T02:15:15.306Z,100115.00
2023-11-01T02:17:17.053Z,100118.53
2023-11-01T02:19:18.756Z,100107.75
2023-11-01T02:21:20.254Z,100106.94
2023-11-01T02:23:34.736Z,100099.00
2023-11-01T02:25:36.418Z,100102.88
2023-11-01T02:27:38.069Z,100093.28
2023-11-01T02:29:39.764Z,100091.59
2023-11-01T02:31:42.780Z,100077.13
2023-11-01T02:33:44.754Z,100070.75
2023-11-01T02:35:46.191Z,100076.66
2023-11-01T02:37:50.672Z,100080.84
2023-11-01T02:39:52.219Z,100069.09
2023-11-01T02:41:53.842Z,100068.91
2023-11-01T02:43:55.305Z,100053.63
2023-11-01T02:45:56.803Z,100050.06
2023-11-01T02:47:58.333Z,100045.69
2023-11-01T02:49:59.870Z,100041.31
2023-11-01T02:52:01.428Z,100038.78
2023-11-01T02:54:02.954Z,100041.50
2023-11-01T02:56:04.694Z,100039.66
2023-11-01T02:58:06.208Z,100035.09
2023-11-01T03:00:09.219Z,100044.88
2023-11-01T03:02:10.797Z,100035.78
2023-11-01T03:04:12.457Z,100024.16
2023-11-01T03:06:13.969Z,100028.38
2023-11-01T03:08:15.613Z,100022.97
2023-11-01T03:10:17.079Z,100023.16
2023-11-01T03:12:18.548Z,100026.84
2023-11-01T03:14:20.067Z,100018.78
2023-11-01T03:16:21.623Z,100017.94
2023-11-01T03:18:23.107Z,100016.09
2023-11-01T03:20:24.741Z,100019.63
2023-11-01T03:22:26.254Z,100015.94
2023-11-01T03:24:27.763Z,100008.69
2023-11-01T03:26:29.274Z,100006.00
2023-11-01T03:28:30.859Z,100010.22
2023-11-01T03:30:32.332Z,99999.44
2023-11-01T03:32:34.418Z,100003.13
2023-11-01T03:34:35.988Z,99987.00
2023-11-01T03:36:37.953Z,100000.63
2023-11-01T03:38:39.680Z,99971.38
2023-11-01T03:40:41.228Z,99988.34
2023-11-01T03:42:42.744Z,99982.97
2023-11-01T03:44:44.232Z,99979.78
2023-11-01T03:46:47.127Z,99982.13
2023-11-01T03:48:50.370Z,99978.41
2023-11-01T03:50:51.833Z,99978.25
2023-11-01T03:52:53.342Z,99979.09
2023-11-01T03:54:54.845Z,99978.25
2023-11-01T03:56:56.416Z,99973.03
2023-11-01T03:58:57.867Z,99966.81
2023-11-01T04:00:59.502Z,99969.66
2023-11-01T04:03:01.168Z,99961.59
2023-11-01T04:05:02.715Z,99961.59
2023-11-01T04:07:04.245Z,99957.06
2023-11-01T04:09:07.300Z,99952.34
2023-11-01T04:11:08.865Z,99959.25
2023-11-01T04:13:10.337Z,99962.78
2023-11-01T04:15:14.762Z,99952.00
2023-11-01T04:17:16.291Z,99944.75
2023-11-01T04:19:18.525Z,99934.84
2023-11-01T04:21:20.160Z,99945.78
2023-11-01T04:23:21.631Z,99950.50
2023-11-01T04:25:23.253Z,99946.13
2023-11-01T04:27:24.752Z,99945.44
2023-11-01T04:29:27.398Z,99943.59
2023-11-01T04:31:29.125Z,99934.69
2023-11-01T04:33:33.283Z,99920.88
2023-11-01T04:35:37.905Z,99912.63
2023-11-01T04:37:40.229Z,99913.50
2023-11-01T04:39:47.382Z,99913.31
2023-11-01T04:41:49.165Z,99912.47
2023-11-01T04:43:50.724Z,99912.47
2023-11-01T04:45:52.235Z,99912.63
2023-11-01T04:47:53.910Z,99906.56
2023-11-01T04:49:55.877Z,99904.91
2023-11-01T04:51:57.335Z,99895.16
2023-11-01T04:53:59.495Z,99898.50
2023-11-01T04:56:01.162Z,99895.66
2023-11-01T04:58:04.093Z,99888.25
2023-11-01T05:00:17.768Z,99896.81
2023-11-01T05:02:20.091Z,99895.84
2023-11-01T05:04:21.747Z,99880.66
2023-11-01T05:06:23.191Z,99887.91
2023-11-01T05:08:24.724Z,99881.03
2023-11-01T05:10:26.293Z,99870.44
2023-11-01T05:12:27.790Z,99867.88
2023-11-01T05:14:29.383Z,99862.50
2023-11-01T05:16:30.925Z,99860.69
2023-11-01T05:18:32.584Z,99861.31
2023-11-01T05:20:34.105Z,99857.63
2023-11-01T05:22:35.657Z,99851.94
2023-11-01T05:24:37.186Z,99859.00
2023-11-01T05:26:38.928Z,99848.25
2023-11-01T05:28:40.462Z,99849.06
2023-11-01T05:30:42.784Z,99847.38
2023-11-01T05:32:46.729Z,99843.16
2023-11-01T05:34:49.373Z,99824.69
2023-11-01T05:36:51.643Z,99821.16
2023-11-01T05:38:53.754Z,99832.75
2023-11-01T05:40:55.253Z,99826.34
2023-11-01T05:42:57.845Z,99822.63
2023-11-01T05:44:59.343Z,99824.13
2023-11-01T05:47:01.221Z,99813.38
2023-11-01T05:49:02.748Z,99816.94
2023-11-01T05:51:05.138Z,99809.69
2023-11-01T05:53:10.714Z,99817.63
2023-11-01T05:55:18.466Z,99808.88
2023-11-01T05:57:25.558Z,99806.34
2023-11-01T05:59:27.106Z,99795.72
2023-11-01T06:01:28.633Z,99795.06
2023-11-01T06:03:30.568Z,99790.50
2023-11-01T06:05:32.387Z,99787.66
2023-11-01T06:07:34.061Z,99784.81
2023-11-01T06:09:35.497Z,99787.34
2023-11-01T06:11:37.143Z,99779.09
2023-11-01T06:13:38.689Z,99774.56
2023-11-01T06:15:40.224Z,99771.00
2023-11-01T06:17:41.833Z,99785.47
2023-11-01T06:19:43.426Z,99764.09
2023-11-01T06:21:45.108Z,99763.41
2023-11-01T06:23:46.777Z,99767.13
2023-11-01T06:25:48.565Z,99754.03
2023-11-01T06:27:50.179Z,99755.53
2023-11-01T06:29:51.765Z,99749.31
2023-11-01T06:31:53.440Z,99744.59
2023-11-01T06:33:55.131Z,99750.63
2023-11-01T06:35:56.720Z,99755.88
2023-11-01T06:37:58.348Z,99754.84
2023-11-01T06:39:59.921Z,99760.25
2023-11-01T06:42:01.516Z,99764.78
2023-11-01T06:44:06.888Z,99764.91
2023-11-01T06:46:08.369Z,99770.50
2023-11-01T06:48:10.777Z,99775.03
2023-11-01T06:50:15.512Z,99779.56
2023-11-01T06:52:17.060Z,99776.88
2023-11-01T06:54:18.942Z,99773.88
2023-11-01T06:56:23.303Z,99775.69
2023-11-01T06:58:24.907Z,99772.88
2023-11-01T07:00:26.379Z,99764.97
2023-11-01T07:02:28.004Z,99772.88
2023-11-01T07:04:29.542Z,99775.38
2023-11-01T07:06:31.087Z,99772.03
2023-11-01T07:08:32.629Z,99771.34
2023-11-01T07:10:34.141Z,99769.81
2023-11-01T07:12:35.635Z,99760.91
2023-11-01T07:14:37.218Z,99766.28
2023-11-01T07:16:42.505Z,99767.13
2023-11-01T07:18:44.116Z,99773.00
2023-11-01T07:20:45.670Z,99764.78
2023-11-01T07:22:47.333Z,99760.91
2023-11-01T07:24:48.939Z,99764.44
2023-11-01T07:26:50.492Z,99761.75
2023-11-01T07:28:52.987Z,99758.03
2023-11-01T07:30:54.613Z,99758.22
2023-11-01T07:32:56.352Z,99750.47
2023-11-01T07:34:58.261Z,99750.63
2023-11-01T07:36:59.800Z,99749.81
2023-11-01T07:39:01.481Z,99745.25
2023-11-01T07:41:03.266Z,99746.06
2023-11-01T07:43:04.845Z,99742.25
2023-11-01T07:45:07.058Z,99738.38
2023-11-01T07:47:08.581Z,99733.00
2023-11-01T07:49:10.082Z,99730.28
2023-11-01T07:51:11.591Z,99718.53
2023-11-01T07:53:13.037Z,99725.75
2023-11-01T07:55:14.551Z,99726.75
2023-11-01T07:57:16.086Z,99721.72
2023-11-01T07:59:17.596Z,99723.91
2023-11-01T08:01:19.734Z,99714.97
2023-11-01T08:03:21.340Z,99707.75
2023-11-01T08:05:23.432Z,99713.78
2023-11-01T08:07:25.386Z,99704.56
2023-11-01T08:09:26.875Z,99702.53
2023-11-01T08:11:28.438Z,99698.00
2023-11-01T08:13:29.926Z,99705.06
2023-11-01T08:15:34.376Z,99699.69
2023-11-01T08:17:35.969Z,99694.44
2023-11-01T08:19:39.346Z,99692.94
2023-11-01T08:21:40.854Z,99693.13
2023-11-01T08:23:42.318Z,99696.81
2023-11-01T08:25:43.845Z,99686.03
2023-11-01T08:27:45.298Z,99686.56
2023-11-01T08:29:46.854Z,99685.53
2023-11-01T08:31:48.524Z,99673.78
2023-11-01T08:33:50.237Z,99677.97
2023-11-01T08:35:52.539Z,99674.25
2023-11-01T08:37:54.003Z,99669.88
2023-11-01T08:39:55.461Z,99665.50
2023-11-01T08:41:57.506Z,99664.00
2023-11-01T08:43:59.049Z,99678.47
2023-11-01T08:46:01.132Z,99660.66
2023-11-01T08:48:02.891Z,99663.53
2023-11-01T08:50:05.339Z,99660.84
2023-11-01T08:52:06.873Z,99663.34
2023-11-01T08:54:10.399Z,99667.38
2023-11-01T08:56:11.893Z,99652.72
2023-11-01T08:58:13.390Z,99658.94
2023-11-01T09:00:15.493Z,99655.41
2023-11-01T09:02:18.043Z,99651.88
2023-11-01T09:04:19.572Z,99649.16
2023-11-01T09:06:21.109Z,99654.75
2023-11-01T09:08:22.631Z,99652.38
2023-11-01T09:10:24.104Z,99649.88
2023-11-01T09:12:25.904Z,99645.50
2023-11-01T09:14:27.422Z,99643.69
2023-11-01T09:16:29.010Z,99644.16
2023-11-01T09:18:30.595Z,99645.66
2023-11-01T09:20:32.382Z,99646.28
2023-11-01T09:22:33.910Z,99648.97
2023-11-01T09:24:35.869Z,99632.00
2023-11-01T09:26:37.330Z,99633.88
2023-11-01T09:28:38.865Z,99628.66
2023-11-01T09:30:40.383Z,99625.47
2023-11-01T09:32:42.242Z,99628.34
2023-11-01T09:34:45.090Z,99631.03
2023-11-01T09:36:46.874Z,99626.50
2023-11-01T09:38:48.397Z,99629.03
2023-11-01T09:40:49.975Z,99642.78
2023-11-01T09:42:52.245Z,99631.19
2023-11-01T09:44:57.132Z,99634.88
2023-11-01T09:46:59.421Z,99633.03
2023-11-01T09:49:01.780Z,99633.88
2023-11-01T09:51:04.883Z,99625.97
2023-11-01T09:53:06.417Z,99629.69
2023-11-01T09:55:08.086Z,99630.84
2023-11-01T09:57:12.006Z,99631.03
2023-11-01T09:59:13.878Z,99634.75
2023-11-01T10:01:17.311Z,99625.84
2023-11-01T10:03:20.719Z,99631.22
2023-11-01T10:05:22.373Z,99630.03
2023-11-01T10:07:23.850Z,99627.81
2023-11-01T10:09:27.434Z,99622.06
2023-11-01T10:11:31.183Z,99623.75
2023-11-01T10:13:32.923Z,99612.34
2023-11-01T10:15:34.948Z,99624.94
2023-11-01T10:17:36.584Z,99620.75
2023-11-01T10:19:38.158Z,99610.84
2023-11-01T10:21:39.771Z,99610.19
2023-11-01T10:23:41.352Z,99602.28
2023-11-01T10:25:46.186Z,99603.59
2023-11-01T10:27:48.767Z,99600.53
2023-11-01T10:29:50.375Z,99602.06
2023-11-01T10:31:55.252Z,99587.72
2023-11-01T10:33:56.986Z,99589.41
2023-11-01T10:36:00.281Z,99587.56
2023-11-01T10:38:03.548Z,99572.78
2023-11-01T10:40:08.211Z,99573.59
2023-11-01T10:42:10.713Z,99571.09
2023-11-01T10:44:12.531Z,99569.63
2023-11-01T10:46:14.491Z,99580.38
2023-11-01T10:48:16.574Z,99576.88
2023-11-01T10:50:19.051Z,99570.47
2023-11-01T10:52:20.729Z,99567.78
2023-11-01T10:54:22.691Z,99569.63
2023-11-01T10:56:24.298Z,99566.72
2023-11-01T10:58:28.425Z,99565.72
2023-11-01T11:00:38.901Z,99568.41
2023-11-01T11:02:45.150Z,99569.44
2023-11-01T11:05:14.549Z,99562.22
2023-11-01T11:07:24.194Z,99557.00
2023-11-01T11:09:28.911Z,99551.63
2023-11-01T11:11:30.577Z,99549.75
2023-11-01T11:13:32.065Z,99548.75
2023-11-01T11:15:49.346Z,99551.91
2023-11-01T11:18:06.387Z,99547.34
2023-11-01T11:20:07.963Z,99545.53
2023-11-01T11:22:09.593Z,99541.16
2023-11-01T11:24:29.413Z,99546.53
2023-11-01T11:26:40.367Z,99537.78
2023-11-01T11:31:12.862Z,99533.97
2023-11-01T11:33:15.125Z,99531.25
2023-11-01T11:35:20.529Z,99522.56
2023-11-01T11:37:29.815Z,99526.94
2023-11-01T11:39:57.422Z,99527.56
2023-11-01T11:42:00.522Z,99516.44
2023-11-01T11:44:03.470Z,99522.66
2023-11-01T11:46:23.626Z,99510.88
2023-11-01T11:48:41.645Z,99521.66
2023-11-01T11:50:43.398Z,99520.97
2023-11-01T11:52:45.386Z,99525.53
2023-11-01T11:54:46.832Z,99518.47
2023-11-01T11:56:49.585Z,99518.47
2023-11-01T11:58:51.484Z,99524.06
2023-11-01T12:00:53.023Z,99521.16
2023-11-01T12:02:54.651Z,99525.34
2023-11-01T12:04:57.551Z,99530.53
2023-11-01T12:06:59.191Z,99524.16
2023-11-01T12:09:00.753Z,99529.38
2023-11-01T12:11:02.317Z,99536.41
2023-11-01T12:13:03.813Z,99537.44
2023-11-01T12:15:07.885Z,99529.72
2023-11-01T12:17:09.758Z,99515.59
2023-11-01T12:19:20.471Z,99523.66
2023-11-01T12:21:22.009Z,99527.56
2023-11-01T12:23:23.474Z,99523.03
2023-11-01T12:25:25.102Z,99523.66
2023-11-01T12:27:30.609Z,99522.13
2023-11-01T12:29:33.105Z,99522.94
2023-11-01T12:31:34.682Z,99535.56
2023-11-01T12:33:36.269Z,99531.88
2023-11-01T12:35:44.415Z,99528.31
2023-11-01T12:37:46.828Z,99526.69
2023-11-01T12:40:01.447Z,99526.84
2023-11-01T12:42:22.121Z,99518.75
2023-11-01T12:44:24.618Z,99517.94
2023-11-01T12:46:27.336Z,99516.94
2023-11-01T12:48:28.977Z,99524.81
2023-11-01T12:50:31.945Z,99513.69
2023-11-01T12:52:34.256Z,99519.91
2023-11-01T12:54:36.603Z,99528.78
2023-11-01T12:56:38.127Z,99517.22
2023-11-01T12:58:39.787Z,99511.00
2023-11-01T13:00:42.038Z,99515.34
2023-11-01T13:02:44.288Z,99513.69
2023-11-01T13:04:45.950Z,99521.94
2023-11-01T13:06:47.750Z,99519.44
2023-11-01T13:08:49.262Z,99520.63
2023-11-01T13:10:50.800Z,99516.72
2023-11-01T13:12:52.907Z,99529.19
2023-11-01T13:14:55.407Z,99527.69
2023-11-01T13:16:56.956Z,99516.94
2023-11-01T13:18:58.582Z,99515.06
2023-11-01T13:21:00.177Z,99508.66
2023-11-01T13:23:01.652Z,99503.09
2023-11-01T13:25:03.268Z,99503.94
2023-11-01T13:27:10.238Z,99506.63
2023-11-01T13:29:12.306Z,99495.00
2023-11-01T13:31:13.784Z,99485.91
2023-11-01T13:33:16.265Z,99494.84
2023-11-01T13:35:17.954Z,99496.88
2023-11-01T13:37:19.490Z,99498.72
2023-11-01T13:39:21.030Z,99498.72
2023-11-01T13:41:23.281Z,99490.47
2023-11-01T13:43:25.194Z,99483.22
2023-11-01T13:45:26.713Z,99490.09
2023-11-01T13:47:30.409Z,99497.53
2023-11-01T13:49:33.862Z,99485.09
2023-11-01T13:51:35.445Z,99486.94
2023-11-01T13:53:38.329Z,99487.31
2023-11-01T13:55:49.590Z,99486.47
2023-11-01T13:57:51.634Z,99483.97
2023-11-01T13:59:53.314Z,99479.41
2023-11-01T14:01:57.826Z,99469.09
2023-11-01T14:04:00.389Z,99478.84
2023-11-01T14:06:02.197Z,99460.00
2023-11-01T14:08:05.286Z,99466.25
2023-11-01T14:10:07.055Z,99460.88
2023-11-01T14:12:08.654Z,99465.41
2023-11-01T14:14:10.133Z,99460.00
2023-11-01T14:16:11.843Z,99459.38
2023-11-01T14:18:20.145Z,99468.28
2023-11-01T14:20:21.708Z,99459.19
2023-11-01T14:22:23.589Z,99461.69
2023-11-01T14:24:25.107Z,99450.72
2023-11-01T14:26:26.683Z,99455.09
2023-11-01T14:28:28.911Z,99455.56
2023-11-01T14:30:30.482Z,99449.16
2023-11-01T14:32:32.641Z,99458.09
2023-11-01T14:34:34.214Z,99456.44
2023-11-01T14:36:36.000Z,99464.66
2023-11-01T14:38:37.610Z,99456.97
2023-11-01T14:40:39.088Z,99457.16
2023-11-01T14:42:40.615Z,99457.31
2023-11-01T14:44:42.345Z,99464.56
2023-11-01T14:46:43.935Z,99472.66
2023-11-01T14:48:45.535Z,99479.53
2023-11-01T14:50:47.189Z,99484.91
2023-11-01T14:52:48.952Z,99476.81
2023-11-01T14:54:50.520Z,99470.22
2023-11-01T14:56:52.212Z,99479.81
2023-11-01T14:58:55.363Z,99470.91
2023-11-01T15:00:58.177Z,99460.31
2023-11-01T15:02:59.927Z,99475.63
2023-11-01T15:05:01.723Z,99472.94
2023-11-01T15:07:03.361Z,99485.56
2023-11-01T15:09:05.957Z,99473.94
2023-11-01T15:11:08.449Z,99462.53
2023-11-01T15:13:09.957Z,99472.94
2023-11-01T15:15:11.464Z,99474.59
2023-11-01T15:17:13.011Z,99483.50
2023-11-01T15:19:14.483Z,99484.34
2023-11-01T15:21:16.045Z,99484.34
2023-11-01T15:23:17.499Z,99504.22
2023-11-01T15:25:19.073Z,99507.09
2023-11-01T15:27:20.708Z,99497.53
2023-11-01T15:29:22.207Z,99498.56
2023-11-01T15:31:23.717Z,99489.63
2023-11-01T15:33:26.021Z,99478.84
2023-11-01T15:35:27.666Z,99478.69
2023-11-01T15:37:29.204Z,99463.38
2023-11-01T15:39:30.736Z,99464.19
2023-11-01T15:41:32.596Z,99478.50
2023-11-01T15:43:34.095Z,99491.97
2023-11-01T15:45:35.806Z,99499.03
2023-11-01T15:47:37.934Z,99483.03
2023-11-01T15:49:39.557Z,99476.00
2023-11-01T15:51:41.107Z,99472.47
2023-11-01T15:53:42.959Z,99454.63
2023-11-01T15:55:44.761Z,99468.94
2023-11-01T15:57:46.519Z,99474.97
2023-11-01T15:59:47.978Z,99471.25
2023-11-01T16:01:50.970Z,99479.16
2023-11-01T16:03:52.627Z,99459.47
2023-11-01T16:05:54.328Z,99463.00
2023-11-01T16:07:55.980Z,99454.09
2023-11-01T16:09:57.506Z,99444.53
2023-11-01T16:11:59.122Z,99454.63
2023-11-01T16:14:00.732Z,99445.06
2023-11-01T16:16:02.820Z,99439.03
2023-11-01T16:18:04.596Z,99425.94
2023-11-01T16:20:06.670Z,99424.75
2023-11-01T16:22:08.171Z,99434.28
2023-11-01T16:24:09.858Z,99442.19
2023-11-01T16:26:11.418Z,99446.38
2023-11-01T16:28:13.082Z,99443.69
2023-11-01T16:30:14.905Z,99441.81
2023-11-01T16:32:18.051Z,99437.47
2023-11-01T16:34:19.566Z,99424.19
2023-11-01T16:36:21.132Z,99435.78
2023-11-01T16:38:22.737Z,99432.63
2023-11-01T16:40:24.207Z,99428.25
2023-11-01T16:42:25.782Z,99432.00
2023-11-01T16:44:27.224Z,99428.25
2023-11-01T16:46:28.830Z,99430.78
2023-11-01T16:48:30.473Z,99433.28
2023-11-01T16:50:32.177Z,99431.41
2023-11-01T16:52:33.645Z,99427.53
2023-11-01T16:54:35.217Z,99420.28
2023-11-01T16:56:36.712Z,99430.25
2023-11-01T16:58:38.163Z,99432.28
2023-11-01T17:00:40.543Z,99430.59
2023-11-01T17:02:47.939Z,99429.94
2023-11-01T17:04:52.892Z,99431.13
2023-11-01T17:06:54.422Z,99427.44
2023-11-01T17:08:55.970Z,99429.09
2023-11-01T17:10:57.992Z,99431.41
2023-11-01T17:12:59.853Z,99424.84
2023-11-01T17:15:01.354Z,99424.66
2023-11-01T17:17:03.583Z,99425.69
2023-11-01T17:19:05.095Z,99427.53
2023-11-01T17:21:06.933Z,99431.25
2023-11-01T17:23:09.882Z,99437.66
2023-11-01T17:25:30.697Z,99431.41
2023-11-01T17:27:36.021Z,99432.47
2023-11-01T17:29:37.666Z,99435.50
2023-11-01T17:31:40.539Z,99426.41
2023-11-01T17:33:43.798Z,99435.97
2023-11-01T17:35:45.539Z,99429.56
2023-11-01T17:37:51.113Z,99435.44
2023-11-01T17:39:54.297Z,99432.06
2023-11-01T17:41:59.541Z,99430.25
2023-11-01T17:44:01.270Z,99434.97
2023-11-01T17:46:02.822Z,99436.78
2023-11-01T17:48:04.562Z,99428.91
2023-11-01T17:50:07.129Z,99428.09
2023-11-01T17:52:08.728Z,99427.44
2023-11-01T17:54:10.397Z,99426.41
2023-11-01T17:56:12.136Z,99423.72
2023-11-01T17:58:13.623Z,99422.88
2023-11-01T18:00:15.589Z,99419.00
2023-11-01T18:02:40.363Z,99422.16
2023-11-01T18:04:41.968Z,99424.84
2023-11-01T18:06:43.500Z,99430.25
2023-11-01T18:08:44.974Z,99424.19
2023-11-01T18:10:48.484Z,99415.25
2023-11-01T18:12:50.075Z,99408.13
2023-11-01T18:14:54.641Z,99413.63
2023-11-01T18:16:56.838Z,99415.25
2023-11-01T18:18:58.488Z,99411.56
2023-11-01T18:21:11.985Z,99403.31
2023-11-01T18:23:13.496Z,99410.19
2023-11-01T18:25:33.561Z,99404.81
2023-11-01T18:27:35.014Z,99396.88
2023-11-01T18:29:39.479Z,99399.78
2023-11-01T18:31:42.356Z,99390.22
2023-11-01T18:33:58.029Z,99383.81
2023-11-01T18:35:59.601Z,99386.84
2023-11-01T18:38:01.077Z,99376.09
2023-11-01T18:40:02.553Z,99363.66
2023-11-01T18:42:08.399Z,99374.25
2023-11-01T18:44:22.074Z,99364.13
2023-11-01T18:46:24.453Z,99361.25
2023-11-01T18:48:26.525Z,99358.72
2023-11-01T18:50:28.395Z,99348.63
2023-11-01T18:52:29.975Z,99350.50
2023-11-01T18:54:35.442Z,99340.94
2023-11-01T18:56:39.983Z,99342.59
2023-11-01T18:58:41.602Z,99350.84
2023-11-01T19:00:43.100Z,99343.78
2023-11-01T19:03:00.043Z,99327.09
2023-11-01T19:05:09.172Z,99338.59
2023-11-01T19:07:11.600Z,99338.41
2023-11-01T19:09:16.522Z,99333.50
2023-11-01T19:11:18.070Z,99327.28
2023-11-01T19:13:19.556Z,99329.31
2023-11-01T19:15:26.848Z,99316.72
2023-11-01T19:17:31.862Z,99310.47
2023-11-01T19:19:34.302Z,99310.47
2023-11-01T19:21:35.757Z,99292.84
2023-11-01T19:23:37.310Z,99290.34
2023-11-01T19:25:38.943Z,99293.03
2023-11-01T19:27:40.501Z,99291.38
2023-11-01T19:29:42.937Z,99293.66
2023-11-01T19:31:44.628Z,99285.22
2023-11-01T19:33:46.507Z,99283.19
2023-11-01T19:35:48.142Z,99278.28
2023-11-01T19:37:49.626Z,99265.63
2023-11-01T19:39:51.441Z,99262.94
2023-11-01T19:41:52.904Z,99259.44
2023-11-01T19:43:59.439Z,99244.66
2023-11-01T19:46:00.993Z,99240.69
2023-11-01T19:48:02.750Z,99234.84
2023-11-01T19:50:05.408Z,99224.06
2023-11-01T19:52:07.244Z,99220.09
2023-11-01T19:54:08.789Z,99211.63
2023-11-01T19:56:10.309Z,99202.16
2023-11-01T19:58:11.800Z,99191.22
2023-11-01T20:00:13.994Z,99175.53
2023-11-01T20:02:15.621Z,99176.16
2023-11-01T20:04:17.902Z,99166.44
2023-11-01T20:06:19.520Z,99166.59
2023-11-01T20:08:21.118Z,99161.41
2023-11-01T20:10:22.705Z,99150.84
2023-11-01T20:12:24.248Z,99140.44
2023-11-01T20:14:25.804Z,99129.47
2023-11-01T20:16:30.773Z,99109.91
2023-11-01T20:18:32.965Z,99101.63
2023-11-01T20:20:34.499Z,99091.31
2023-11-01T20:22:41.843Z,99089.06
2023-11-01T20:24:43.609Z,99083.69
2023-11-01T20:26:45.191Z,99070.00
2023-11-01T20:28:46.680Z,99071.47
2023-11-01T20:30:48.235Z,99052.84
2023-11-01T20:32:49.940Z,99038.72
2023-11-01T20:34:51.460Z,99032.09
2023-11-01T20:36:53.029Z,99021.88
2023-11-01T20:38:54.525Z,99028.94
2023-11-01T20:40:56.068Z,99032.09
2023-11-01T20:42:57.502Z,99032.72
2023-11-01T20:44:59.228Z,99023.16
2023-11-01T20:47:00.871Z,99034.13
2023-11-01T20:49:02.417Z,99035.41
2023-11-01T20:51:10.823Z,99026.91
2023-11-01T20:53:12.395Z,98997.47
2023-11-01T20:55:13.898Z,98979.03
2023-11-01T20:57:16.645Z,98980.88
2023-11-01T20:59:18.293Z,98981.88
2023-11-01T21:01:19.945Z,98986.44
2023-11-01T21:03:22.090Z,98976.34
2023-11-01T21:05:24.102Z,98951.31
2023-11-01T21:07:30.716Z,98931.00
2023-11-01T21:09:32.250Z,98934.72
2023-11-01T21:11:34.359Z,98942.81
2023-11-01T21:13:35.847Z,98929.13
2023-11-01T21:15:37.413Z,98927.47
2023-11-01T21:17:39.358Z,98919.81
2023-11-01T21:19:43.335Z,98913.97
2023-11-01T21:21:44.940Z,98904.44
2023-11-01T21:23:46.507Z,98889.31
2023-11-01T21:25:47.977Z,98883.09
2023-11-01T21:27:49.477Z,98883.09
2023-11-01T21:29:50.976Z,98872.31
2023-11-01T21:31:52.670Z,98861.81
2023-11-01T21:33:54.298Z,98857.91
2023-11-01T21:35:55.943Z,98832.81
2023-11-01T21:37:57.523Z,98825.97
2023-11-01T21:39:59.365Z,98813.16
2023-11-01T21:42:00.994Z,98813.38
2023-11-01T21:44:02.494Z,98819.97
2023-11-01T21:46:04.031Z,98813.13
2023-11-01T21:48:06.247Z,98815.19
2023-11-01T21:50:13.874Z,98801.09
2023-11-01T21:52:19.443Z,98809.81
2023-11-01T21:54:26.969Z,98786.41
2023-11-01T21:56:32.724Z,98786.41
2023-11-01T21:58:34.762Z,98769.44
2023-11-01T22:00:36.237Z,98783.50
2023-11-01T22:02:49.451Z,98764.06
2023-11-01T22:04:51.946Z,98738.19
2023-11-01T22:06:56.396Z,98736.31
2023-11-01T22:09:05.291Z,98727.81
2023-11-01T22:11:11.130Z,98706.66
2023-11-01T22:13:12.829Z,98698.38
2023-11-01T22:15:19.043Z,98683.25
2023-11-01T22:17:32.965Z,98678.72
2023-11-01T22:19:42.431Z,98670.25
2023-11-01T22:21:44.246Z,98665.72
2023-11-01T22:23:47.521Z,98656.00
2023-11-01T22:25:49.088Z,98649.94
2023-11-01T22:27:50.659Z,98634.63
2023-11-01T22:29:53.112Z,98629.22
2023-11-01T22:31:55.538Z,98635.50
2023-11-01T22:33:57.280Z,98624.28
2023-11-01T22:35:58.840Z,98618.69
2023-11-01T22:38:00.835Z,98614.16
2023-11-01T22:40:06.736Z,98611.91
2023-11-01T22:42:15.064Z,98603.00
2023-11-01T22:44:16.746Z,98596.19
2023-11-01T22:46:18.809Z,98595.97
2023-11-01T22:48:20.726Z,98573.22
2023-11-01T22:50:22.236Z,98575.06
2023-11-01T22:52:23.669Z,98579.19
2023-11-01T22:54:25.332Z,98576.94
2023-11-01T22:56:26.882Z,98575.28
2023-11-01T22:58:28.330Z,98581.47
2023-11-01T23:00:30.924Z,98584.78
2023-11-01T23:02:32.442Z,98583.75
2023-11-01T23:04:35.442Z,98591.63
2023-11-01T23:06:37.096Z,98588.13
2023-11-01T23:08:38.559Z,98570.91
2023-11-01T23:10:40.203Z,98570.31
2023-11-01T23:12:41.693Z,98557.88
2023-11-01T23:14:43.164Z,98556.84
2023-11-01T23:16:44.717Z,98562.63
2023-11-01T23:18:46.313Z,98546.47
2023-11-01T23:20:47.977Z,98554.78
2023-11-01T23:22:53.318Z,98539.44
2023-11-01T23:24:54.890Z,98538.00
2023-11-01T23:27:03.251Z,98512.94
2023-11-01T23:29:14.268Z,98516.06
2023-11-01T23:31:20.477Z,98506.53
2023-11-01T23:33:42.279Z,98494.91
2023-11-01T23:35:47.547Z,98493.06
2023-11-01T23:37:49.176Z,98497.03
2023-11-01T23:39:51.297Z,98493.50
2023-11-01T23:41:53.381Z,98478.56
2023-11-01T23:44:01.542Z,98455.41
2023-11-01T23:46:08.353Z,98439.25
2023-11-01T23:48:10.152Z,98429.13
2023-11-01T23:50:18.219Z,98403.47
2023-11-01T23:52:20.321Z,98384.41
2023-11-01T23:54:23.197Z,98393.31
2023-11-01T23:56:25.095Z,98405.50
2023-11-01T23:58:31.322Z,98364.34
